createdAt,value
2019-03-09T00:00:15.349Z,99.99
2019-03-09T00:01:15.330Z,99.65
2019-03-09T00:02:15.189Z,99.99
2019-03-09T00:03:15.076Z,99.93
2019-03-09T00:04:14.998Z,99.99
2019-03-09T00:05:14.970Z,99.99
2019-03-09T00:06:15.942Z,99.74
2019-03-09T00:07:14.796Z,99.99
2019-03-09T00:08:14.732Z,99.65
2019-03-09T00:09:14.698Z,99.84
2019-03-09T00:10:14.482Z,99.84
2019-03-09T00:11:14.436Z,99.27
2019-03-09T00:12:14.275Z,99.27
2019-03-09T00:13:14.305Z,99.27
2019-03-09T00:14:14.407Z,98.98
2019-03-09T00:15:15.150Z,98.98
2019-03-09T00:16:14.072Z,99.08
2019-03-09T00:17:13.904Z,99.46
2019-03-09T00:18:13.805Z,98.50
2019-03-09T00:19:13.806Z,98.13
2019-03-09T00:20:13.693Z,98.13
2019-03-09T00:21:13.552Z,98.36
2019-03-09T00:22:13.493Z,98.22
2019-03-09T00:23:13.404Z,98.13
2019-03-09T00:24:13.370Z,98.46
2019-03-09T00:25:13.285Z,98.08
2019-03-09T00:26:13.153Z,98.36
2019-03-09T00:27:13.065Z,98.55
2019-03-09T00:28:14.091Z,99.32
2019-03-09T00:29:12.898Z,99.99
2019-03-09T00:30:12.851Z,99.98
2019-03-09T00:31:12.772Z,99.99
2019-03-09T00:32:12.623Z,99.99
2019-03-09T00:33:12.530Z,99.99
2019-03-09T00:34:12.410Z,99.99
2019-03-09T00:35:12.322Z,99.99
2019-03-09T00:36:12.224Z,99.99
2019-03-09T00:37:12.136Z,99.99
2019-03-09T00:38:12.061Z,99.99
2019-03-09T00:39:11.971Z,99.99
2019-03-09T00:40:11.934Z,99.99
2019-03-09T00:41:11.790Z,99.99
2019-03-09T00:42:11.734Z,99.99
2019-03-09T00:43:11.627Z,99.99
2019-03-09T00:44:11.544Z,99.99
2019-03-09T00:45:11.477Z,99.99
2019-03-09T00:46:11.411Z,99.99
2019-03-09T00:47:11.295Z,99.99
2019-03-09T00:48:11.208Z,99.99
2019-03-09T00:49:11.326Z,99.99
2019-03-09T00:50:11.074Z,99.99
2019-03-09T00:51:10.947Z,99.99
2019-03-09T00:52:10.869Z,99.99
2019-03-09T00:53:10.777Z,99.99
2019-03-09T00:54:10.701Z,99.99
2019-03-09T00:55:10.619Z,99.99
2019-03-09T00:56:10.526Z,99.99
2019-03-09T00:57:10.439Z,99.99
2019-03-09T00:58:10.359Z,99.99
2019-03-09T00:59:10.272Z,99.99
2019-03-09T01:00:10.201Z,99.99
2019-03-09T01:01:10.104Z,99.99
2019-03-09T01:02:10.019Z,99.99
2019-03-09T01:03:09.928Z,99.99
2019-03-09T01:04:09.865Z,99.99
2019-03-09T01:05:09.772Z,99.99
2019-03-09T01:06:09.678Z,99.99
2019-03-09T01:07:09.595Z,99.99
2019-03-09T01:08:09.506Z,99.99
2019-03-09T01:09:09.420Z,99.99
2019-03-09T01:10:09.366Z,99.99
2019-03-09T01:11:09.249Z,99.99
2019-03-09T01:12:09.173Z,99.99
2019-03-09T01:13:09.080Z,99.99
2019-03-09T01:14:09.005Z,99.99
2019-03-09T01:15:08.924Z,99.99
2019-03-09T01:16:08.845Z,99.99
2019-03-09T01:17:08.784Z,99.99
2019-03-09T01:18:08.700Z,99.99
2019-03-09T01:19:08.585Z,99.99
2019-03-09T01:20:08.533Z,99.99
2019-03-09T01:21:08.414Z,99.99
2019-03-09T01:22:08.320Z,99.99
2019-03-09T01:23:08.231Z,99.99
2019-03-09T01:24:08.151Z,99.99
2019-03-09T01:25:08.076Z,99.99
2019-03-09T01:26:07.977Z,99.99
2019-03-09T01:27:07.899Z,99.99
2019-03-09T01:28:07.807Z,99.99
2019-03-09T01:29:07.728Z,99.99
2019-03-09T01:30:07.672Z,99.99
2019-03-09T01:31:07.552Z,99.99
2019-03-09T01:32:07.468Z,99.99
2019-03-09T01:33:07.388Z,99.99
2019-03-09T01:34:07.302Z,99.99
2019-03-09T01:35:07.267Z,99.99
2019-03-09T01:36:07.135Z,99.99
2019-03-09T01:37:07.041Z,99.99
2019-03-09T01:38:06.973Z,99.99
2019-03-09T01:39:06.877Z,99.99
2019-03-09T01:40:06.807Z,99.99
2019-03-09T01:41:06.702Z,99.99
2019-03-09T01:42:06.621Z,99.99
2019-03-09T01:43:06.541Z,99.99
2019-03-09T01:44:06.449Z,99.99
2019-03-09T01:45:06.384Z,99.99
2019-03-09T01:46:06.283Z,99.99
2019-03-09T01:47:06.193Z,99.99
2019-03-09T01:48:06.114Z,99.99
2019-03-09T01:49:06.033Z,99.99
2019-03-09T01:50:06.096Z,99.99
2019-03-09T01:51:05.852Z,99.99
2019-03-09T01:52:06.794Z,99.99
2019-03-09T01:53:05.686Z,99.99
2019-03-09T01:54:05.606Z,99.99
2019-03-09T01:55:05.519Z,99.99
2019-03-09T01:56:05.446Z,99.99
2019-03-09T01:57:05.355Z,99.99
2019-03-09T01:58:05.268Z,99.99
2019-03-09T01:59:05.178Z,99.99
2019-03-09T02:00:05.087Z,99.99
2019-03-09T02:01:05.024Z,99.99
2019-03-09T02:02:04.921Z,99.99
2019-03-09T02:03:04.840Z,99.99
2019-03-09T02:04:04.752Z,99.99
2019-03-09T02:05:04.673Z,99.99
2019-03-09T02:06:04.598Z,99.99
2019-03-09T02:07:04.508Z,99.99
2019-03-09T02:08:04.418Z,99.99
2019-03-09T02:09:04.339Z,99.99
2019-03-09T02:10:04.253Z,99.99
2019-03-09T02:11:04.169Z,99.99
2019-03-09T02:12:04.079Z,99.99
2019-03-09T02:13:03.994Z,99.99
2019-03-09T02:14:03.902Z,99.99
2019-03-09T02:15:03.823Z,99.99
2019-03-09T02:16:03.750Z,99.99
2019-03-09T02:17:03.653Z,99.99
2019-03-09T02:18:03.572Z,99.99
2019-03-09T02:19:03.482Z,99.99
2019-03-09T02:20:03.399Z,99.99
2019-03-09T02:21:03.337Z,99.99
2019-03-09T02:22:03.226Z,99.99
2019-03-09T02:23:03.146Z,99.99
2019-03-09T02:24:03.056Z,99.99
2019-03-09T02:25:02.967Z,99.99
2019-03-09T02:26:02.895Z,99.99
2019-03-09T02:27:02.801Z,99.99
2019-03-09T02:28:02.711Z,99.99
2019-03-09T02:29:02.634Z,99.99
2019-03-09T02:30:02.551Z,99.99
2019-03-09T02:31:02.485Z,99.99
2019-03-09T02:32:02.381Z,99.99
2019-03-09T02:33:02.301Z,99.99
2019-03-09T02:34:02.208Z,99.99
2019-03-09T02:35:02.131Z,99.99
2019-03-09T02:36:02.046Z,99.99
2019-03-09T02:37:01.952Z,99.99
2019-03-09T02:38:01.874Z,99.99
2019-03-09T02:39:01.783Z,99.99
2019-03-09T02:40:01.697Z,99.99
2019-03-09T02:41:01.634Z,99.99
2019-03-09T02:42:01.526Z,99.99
2019-03-09T02:43:01.443Z,99.99
2019-03-09T02:44:01.368Z,99.99
2019-03-09T02:45:01.289Z,99.99
2019-03-09T02:46:01.193Z,99.99
2019-03-09T02:47:01.099Z,99.99
2019-03-09T02:48:01.026Z,99.99
2019-03-09T02:49:00.930Z,99.99
2019-03-09T02:50:00.843Z,99.99
2019-03-09T02:51:00.790Z,99.99
2019-03-09T02:52:00.684Z,99.99
2019-03-09T02:53:00.595Z,99.99
2019-03-09T02:54:00.514Z,99.99
2019-03-09T02:55:00.557Z,99.99
2019-03-09T02:56:00.346Z,99.99
2019-03-09T02:57:00.258Z,99.99
2019-03-09T02:58:00.180Z,99.99
2019-03-09T02:59:00.090Z,99.99
2019-03-09T03:00:01.250Z,99.99
2019-03-09T03:00:59.924Z,99.99
2019-03-09T03:01:59.831Z,99.99
2019-03-09T03:02:59.741Z,99.99
2019-03-09T03:03:59.656Z,99.99
2019-03-09T03:04:59.574Z,99.99
2019-03-09T03:05:59.499Z,99.99
2019-03-09T03:06:59.422Z,99.99
2019-03-09T03:07:59.328Z,99.99
2019-03-09T03:08:59.232Z,99.99
2019-03-09T03:09:59.151Z,99.99
2019-03-09T03:10:59.086Z,99.99
2019-03-09T03:11:58.976Z,99.99
2019-03-09T03:12:58.896Z,99.99
2019-03-09T03:13:58.819Z,99.99
2019-03-09T03:14:58.726Z,99.99
2019-03-09T03:15:58.660Z,99.99
2019-03-09T03:16:58.573Z,99.99
2019-03-09T03:17:58.468Z,99.99
2019-03-09T03:18:58.386Z,99.99
2019-03-09T03:19:58.296Z,99.99
2019-03-09T03:20:58.217Z,99.99
2019-03-09T03:21:58.144Z,99.99
2019-03-09T03:22:58.040Z,99.99
2019-03-09T03:23:57.979Z,99.99
2019-03-09T03:24:57.887Z,99.99
2019-03-09T03:25:57.786Z,99.99
2019-03-09T03:26:57.732Z,99.99
2019-03-09T03:27:57.663Z,99.99
2019-03-09T03:28:57.541Z,99.99
2019-03-09T03:29:57.451Z,99.99
2019-03-09T03:30:57.375Z,99.99
2019-03-09T03:31:57.310Z,99.99
2019-03-09T03:32:57.193Z,99.99
2019-03-09T03:33:57.106Z,99.99
2019-03-09T03:34:57.041Z,99.99
2019-03-09T03:35:56.936Z,99.99
2019-03-09T03:36:56.873Z,99.99
2019-03-09T03:37:56.766Z,99.99
2019-03-09T03:38:56.689Z,99.99
2019-03-09T03:39:56.678Z,99.99
2019-03-09T03:40:56.517Z,99.99
2019-03-09T03:41:56.449Z,99.99
2019-03-09T03:42:56.363Z,99.99
2019-03-09T03:43:56.257Z,99.99
2019-03-09T03:44:56.181Z,99.99
2019-03-09T03:45:56.090Z,99.99
2019-03-09T03:46:56.025Z,99.99
2019-03-09T03:47:55.928Z,99.99
2019-03-09T03:48:55.839Z,99.99
2019-03-09T03:49:55.757Z,99.99
2019-03-09T03:50:55.669Z,99.99
2019-03-09T03:51:55.607Z,99.99
2019-03-09T03:52:55.502Z,99.99
2019-03-09T03:53:55.415Z,99.99
2019-03-09T03:54:55.325Z,99.99
2019-03-09T03:55:55.255Z,99.99
2019-03-09T03:56:55.171Z,99.99
2019-03-09T03:57:55.080Z,99.99
2019-03-09T03:58:54.999Z,99.99
2019-03-09T03:59:54.916Z,99.99
2019-03-09T04:00:54.816Z,99.99
2019-03-09T04:01:54.776Z,99.99
2019-03-09T04:02:54.647Z,99.99
2019-03-09T04:03:54.572Z,99.99
2019-03-09T04:04:54.478Z,99.99
2019-03-09T04:05:54.409Z,99.99
2019-03-09T04:06:54.323Z,99.99
2019-03-09T04:07:54.227Z,99.99
2019-03-09T04:08:54.144Z,99.99
2019-03-09T04:09:54.060Z,99.99
2019-03-09T04:10:53.976Z,99.99
2019-03-09T04:11:53.910Z,99.99
2019-03-09T04:12:53.804Z,99.99
2019-03-09T04:13:53.716Z,99.99
2019-03-09T04:14:53.636Z,99.99
2019-03-09T04:15:53.550Z,99.99
2019-03-09T04:16:53.479Z,99.99
2019-03-09T04:17:53.386Z,99.99
2019-03-09T04:18:53.291Z,99.99
2019-03-09T04:19:53.209Z,99.99
2019-03-09T04:20:53.128Z,99.99
2019-03-09T04:21:53.065Z,99.99
2019-03-09T04:22:52.955Z,99.99
2019-03-09T04:23:52.874Z,99.99
2019-03-09T04:24:52.790Z,99.99
2019-03-09T04:25:52.713Z,99.99
2019-03-09T04:26:52.628Z,99.99
2019-03-09T04:27:52.531Z,99.99
2019-03-09T04:28:52.441Z,99.99
2019-03-09T04:29:52.362Z,99.99
2019-03-09T04:30:52.284Z,99.99
2019-03-09T04:31:52.201Z,99.99
2019-03-09T04:32:52.124Z,99.99
2019-03-09T04:33:52.018Z,99.99
2019-03-09T04:34:51.939Z,99.99
2019-03-09T04:35:51.877Z,99.99
2019-03-09T04:36:51.791Z,99.99
2019-03-09T04:37:51.694Z,99.99
2019-03-09T04:38:51.597Z,99.99
2019-03-09T04:39:51.519Z,99.99
2019-03-09T04:40:51.432Z,99.99
2019-03-09T04:41:51.357Z,99.99
2019-03-09T04:42:51.255Z,99.99
2019-03-09T04:43:51.175Z,99.99
2019-03-09T04:44:51.083Z,99.99
2019-03-09T04:45:51.009Z,99.99
2019-03-09T04:46:50.932Z,99.99
2019-03-09T04:47:50.835Z,99.99
2019-03-09T04:48:50.749Z,99.99
2019-03-09T04:49:50.669Z,99.99
2019-03-09T04:50:50.580Z,99.99
2019-03-09T04:51:50.493Z,99.99
2019-03-09T04:52:50.434Z,99.99
2019-03-09T04:53:50.322Z,99.99
2019-03-09T04:54:50.238Z,99.99
2019-03-09T04:55:50.156Z,99.99
2019-03-09T04:56:50.084Z,99.99
2019-03-09T04:57:50.000Z,99.99
2019-03-09T04:58:49.906Z,99.99
2019-03-09T04:59:49.821Z,99.99
2019-03-09T05:00:49.739Z,99.99
2019-03-09T05:01:49.650Z,99.99
2019-03-09T05:02:49.586Z,99.99
2019-03-09T05:03:49.478Z,99.99
2019-03-09T05:04:49.391Z,99.99
2019-03-09T05:05:49.311Z,99.99
2019-03-09T05:06:49.222Z,99.99
2019-03-09T05:07:49.151Z,99.99
2019-03-09T05:08:49.063Z,99.99
2019-03-09T05:09:48.976Z,99.99
2019-03-09T05:10:48.893Z,99.99
2019-03-09T05:11:48.800Z,99.99
2019-03-09T05:12:48.743Z,99.99
2019-03-09T05:13:48.631Z,99.99
2019-03-09T05:14:48.552Z,99.99
2019-03-09T05:15:48.460Z,99.99
2019-03-09T05:16:48.386Z,99.99
2019-03-09T05:17:48.304Z,99.99
2019-03-09T05:18:48.208Z,99.99
2019-03-09T05:19:48.127Z,99.99
2019-03-09T05:20:48.046Z,99.99
2019-03-09T05:21:47.954Z,99.99
2019-03-09T05:22:47.883Z,99.99
2019-03-09T05:23:47.791Z,99.99
2019-03-09T05:24:47.704Z,99.99
2019-03-09T05:25:47.635Z,99.99
2019-03-09T05:26:47.535Z,99.99
2019-03-09T05:27:47.478Z,99.99
2019-03-09T05:28:47.364Z,99.99
2019-03-09T05:29:47.287Z,99.99
2019-03-09T05:30:47.207Z,99.99
2019-03-09T05:31:47.117Z,99.99
2019-03-09T05:32:47.050Z,99.99
2019-03-09T05:33:46.947Z,99.99
2019-03-09T05:34:46.867Z,99.99
2019-03-09T05:35:46.791Z,99.99
2019-03-09T05:36:46.688Z,99.99
2019-03-09T05:37:46.627Z,99.99
2019-03-09T05:38:46.520Z,99.99
2019-03-09T05:39:46.441Z,99.99
2019-03-09T05:40:46.354Z,99.99
2019-03-09T05:41:46.295Z,99.99
2019-03-09T05:42:46.196Z,99.99
2019-03-09T05:43:46.107Z,99.99
2019-03-09T05:44:46.013Z,99.99
2019-03-09T05:45:45.947Z,99.99
2019-03-09T05:46:45.845Z,99.99
2019-03-09T05:47:45.789Z,99.99
2019-03-09T05:48:45.687Z,99.99
2019-03-09T05:49:45.593Z,99.99
2019-03-09T05:50:45.506Z,99.99
2019-03-09T05:51:45.426Z,99.99
2019-03-09T05:52:45.352Z,99.99
2019-03-09T05:53:45.270Z,99.99
2019-03-09T05:54:45.171Z,99.99
2019-03-09T05:55:45.095Z,99.99
2019-03-09T05:56:45.002Z,99.99
2019-03-09T05:57:44.937Z,99.99
2019-03-09T05:58:44.835Z,99.99
2019-03-09T05:59:44.753Z,99.99
2019-03-09T06:00:44.663Z,99.99
2019-03-09T06:01:44.586Z,99.99
2019-03-09T06:02:44.518Z,99.99
2019-03-09T06:03:44.417Z,99.99
2019-03-09T06:04:44.346Z,99.99
2019-03-09T06:05:44.258Z,99.99
2019-03-09T06:06:44.157Z,99.99
2019-03-09T06:07:44.094Z,99.99
2019-03-09T06:08:43.990Z,99.99
2019-03-09T06:09:43.901Z,99.99
2019-03-09T06:10:43.830Z,99.99
2019-03-09T06:11:43.734Z,99.99
2019-03-09T06:12:43.676Z,99.99
2019-03-09T06:13:43.594Z,99.99
2019-03-09T06:14:43.496Z,99.99
2019-03-09T06:15:43.413Z,99.99
2019-03-09T06:16:43.319Z,99.99
2019-03-09T06:17:43.245Z,99.99
2019-03-09T06:18:43.145Z,99.99
2019-03-09T06:19:43.078Z,99.99
2019-03-09T06:20:42.986Z,99.99
2019-03-09T06:21:42.890Z,99.99
2019-03-09T06:22:42.845Z,99.99
2019-03-09T06:23:42.729Z,99.99
2019-03-09T06:24:42.639Z,99.99
2019-03-09T06:25:42.556Z,99.99
2019-03-09T06:26:42.472Z,99.99
2019-03-09T06:27:42.391Z,99.99
2019-03-09T06:28:42.321Z,99.99
2019-03-09T06:29:42.215Z,99.99
2019-03-09T06:30:42.145Z,99.99
2019-03-09T06:31:42.052Z,99.99
2019-03-09T06:32:41.967Z,99.99
2019-03-09T06:33:41.901Z,99.99
2019-03-09T06:34:41.793Z,99.99
2019-03-09T06:35:41.717Z,99.99
2019-03-09T06:36:41.628Z,99.99
2019-03-09T06:37:41.550Z,99.99
2019-03-09T06:38:41.468Z,99.99
2019-03-09T06:39:41.378Z,99.99
2019-03-09T06:40:41.301Z,99.99
2019-03-09T06:41:41.203Z,99.99
2019-03-09T06:42:41.120Z,99.99
2019-03-09T06:43:41.062Z,99.99
2019-03-09T06:44:40.952Z,99.99
2019-03-09T06:45:40.877Z,99.99
2019-03-09T06:46:40.792Z,99.99
2019-03-09T06:47:40.709Z,99.99
2019-03-09T06:48:40.628Z,99.99
2019-03-09T06:49:40.557Z,99.99
2019-03-09T06:50:40.476Z,99.99
2019-03-09T06:51:40.378Z,99.99
2019-03-09T06:52:40.291Z,99.99
2019-03-09T06:53:40.226Z,99.99
2019-03-09T06:54:40.108Z,99.99
2019-03-09T06:55:40.030Z,99.99
2019-03-09T06:56:39.951Z,99.99
2019-03-09T06:57:39.859Z,99.99
2019-03-09T06:58:39.805Z,99.99
2019-03-09T06:59:39.708Z,99.99
2019-03-09T07:00:39.610Z,99.99
2019-03-09T07:01:39.527Z,99.99
2019-03-09T07:02:39.446Z,99.99
2019-03-09T07:03:39.378Z,99.99
2019-03-09T07:04:39.274Z,99.99
2019-03-09T07:05:39.190Z,99.99
2019-03-09T07:06:39.113Z,99.99
2019-03-09T07:07:39.041Z,99.99
2019-03-09T07:08:39.555Z,99.99
2019-03-09T07:09:38.864Z,99.99
2019-03-09T07:10:38.774Z,99.99
2019-03-09T07:11:38.700Z,99.99
2019-03-09T07:12:38.603Z,99.99
2019-03-09T07:13:38.561Z,99.99
2019-03-09T07:14:38.437Z,99.99
2019-03-09T07:15:38.356Z,99.99
2019-03-09T07:16:38.289Z,99.99
2019-03-09T07:17:38.194Z,99.99
2019-03-09T07:18:38.127Z,99.99
2019-03-09T07:19:38.037Z,99.99
2019-03-09T07:20:37.940Z,99.99
2019-03-09T07:21:37.851Z,99.99
2019-03-09T07:22:37.776Z,99.99
2019-03-09T07:23:37.698Z,99.99
2019-03-09T07:24:37.616Z,99.99
2019-03-09T07:25:37.527Z,99.99
2019-03-09T07:26:37.433Z,99.99
2019-03-09T07:27:37.356Z,99.99
2019-03-09T07:28:37.280Z,99.99
2019-03-09T07:29:37.406Z,99.99
2019-03-09T07:30:37.097Z,99.99
2019-03-09T07:31:37.021Z,99.99
2019-03-09T07:32:37.014Z,99.99
2019-03-09T07:33:36.874Z,99.99
2019-03-09T07:34:36.768Z,99.99
2019-03-09T07:35:36.831Z,99.99
2019-03-09T07:36:36.596Z,99.99
2019-03-09T07:37:37.106Z,99.99
2019-03-09T07:38:36.447Z,99.99
2019-03-09T07:39:36.447Z,99.99
2019-03-09T07:40:36.267Z,99.99
2019-03-09T07:41:36.182Z,99.99
2019-03-09T07:42:36.152Z,99.99
2019-03-09T07:43:36.034Z,99.99
2019-03-09T07:44:35.926Z,99.99
2019-03-09T07:45:35.948Z,99.99
2019-03-09T07:46:35.758Z,99.99
2019-03-09T07:47:35.678Z,99.99
2019-03-09T07:48:35.691Z,99.99
2019-03-09T07:49:35.508Z,99.99
2019-03-09T07:50:35.435Z,99.99
2019-03-09T07:51:35.378Z,99.99
2019-03-09T07:52:35.260Z,99.99
2019-03-09T07:53:35.195Z,99.99
2019-03-09T07:54:35.195Z,99.99
2019-03-09T07:55:35.012Z,99.99
2019-03-09T07:56:35.003Z,99.99
2019-03-09T07:57:34.850Z,99.99
2019-03-09T07:58:34.845Z,99.99
2019-03-09T07:59:34.683Z,99.99
2019-03-09T08:00:34.629Z,99.99
2019-03-09T08:01:34.504Z,99.99
2019-03-09T08:02:34.428Z,99.99
2019-03-09T08:03:34.468Z,99.99
2019-03-09T08:04:34.259Z,99.99
2019-03-09T08:05:34.186Z,99.99
2019-03-09T08:06:34.153Z,99.99
2019-03-09T08:07:34.013Z,99.99
2019-03-09T08:08:35.006Z,99.99
2019-03-09T08:09:33.854Z,99.99
2019-03-09T08:10:33.762Z,99.99
2019-03-09T08:11:33.780Z,99.99
2019-03-09T08:12:33.602Z,99.99
2019-03-09T08:13:33.509Z,99.99
2019-03-09T08:14:34.446Z,99.99
2019-03-09T08:15:33.340Z,99.99
2019-03-09T08:16:35.683Z,99.99
2019-03-09T08:17:33.187Z,99.99
2019-03-09T08:18:33.091Z,99.99
2019-03-09T08:19:33.020Z,99.99
2019-03-09T08:20:33.945Z,99.99
2019-03-09T08:21:32.847Z,99.99
2019-03-09T08:22:32.839Z,99.99
2019-03-09T08:23:32.684Z,99.99
2019-03-09T08:24:32.618Z,99.99
2019-03-09T08:25:32.511Z,99.99
2019-03-09T08:26:32.442Z,99.99
2019-03-09T08:27:32.347Z,99.99
2019-03-09T08:28:32.365Z,99.99
2019-03-09T08:29:32.195Z,99.99
2019-03-09T08:30:32.169Z,99.99
2019-03-09T08:31:32.011Z,99.99
2019-03-09T08:32:31.949Z,99.99
2019-03-09T08:33:31.853Z,99.99
2019-03-09T08:34:31.822Z,99.99
2019-03-09T08:35:31.686Z,99.99
2019-03-09T08:36:31.716Z,99.99
2019-03-09T08:37:31.517Z,99.99
2019-03-09T08:38:31.525Z,99.99
2019-03-09T08:39:31.393Z,99.99
2019-03-09T08:40:31.317Z,99.99
2019-03-09T08:41:31.869Z,99.99
2019-03-09T08:42:31.131Z,99.99
2019-03-09T08:43:31.167Z,99.99
2019-03-09T08:44:30.950Z,99.99
2019-03-09T08:45:30.849Z,99.99
2019-03-09T08:46:30.949Z,99.99
2019-03-09T08:47:30.693Z,99.99
2019-03-09T08:48:30.602Z,99.99
2019-03-09T08:49:30.813Z,99.99
2019-03-09T08:50:30.445Z,99.99
2019-03-09T08:51:30.359Z,99.99
2019-03-09T08:52:30.377Z,99.99
2019-03-09T08:53:31.289Z,99.99
2019-03-09T08:54:30.145Z,99.99
2019-03-09T08:55:30.189Z,99.99
2019-03-09T08:56:29.939Z,99.99
2019-03-09T08:57:30.012Z,99.99
2019-03-09T08:58:29.768Z,99.99
2019-03-09T08:59:29.840Z,99.99
2019-03-09T09:00:30.492Z,99.99
2019-03-09T09:01:29.536Z,99.99
2019-03-09T09:02:29.623Z,99.99
2019-03-09T09:03:29.353Z,99.99
2019-03-09T09:04:29.284Z,99.99
2019-03-09T09:05:29.231Z,99.99
2019-03-09T09:06:29.107Z,99.99
2019-03-09T09:07:29.254Z,99.99
2019-03-09T09:08:28.947Z,99.99
2019-03-09T09:09:29.101Z,99.99
2019-03-09T09:10:28.773Z,99.99
2019-03-09T09:11:28.691Z,99.99
2019-03-09T09:12:28.772Z,99.99
2019-03-09T09:13:28.529Z,99.99
2019-03-09T09:14:28.456Z,99.99
2019-03-09T09:15:28.484Z,99.99
2019-03-09T09:16:28.305Z,99.99
2019-03-09T09:17:28.884Z,99.99
2019-03-09T09:18:28.298Z,99.99
2019-03-09T09:19:31.321Z,99.99
2019-03-09T09:20:29.326Z,99.99
2019-03-09T09:21:27.904Z,99.99
2019-03-09T09:22:27.781Z,99.99
2019-03-09T09:23:27.705Z,99.99
2019-03-09T09:24:27.760Z,99.99
2019-03-09T09:25:27.541Z,99.99
2019-03-09T09:26:27.452Z,99.99
2019-03-09T09:27:27.544Z,99.99
2019-03-09T09:28:27.286Z,99.99
2019-03-09T09:29:27.238Z,99.99
2019-03-09T09:30:27.148Z,99.99
2019-03-09T09:31:27.047Z,99.99
2019-03-09T09:32:26.962Z,99.99
2019-03-09T09:33:26.961Z,99.99
2019-03-09T09:34:26.788Z,99.99
2019-03-09T09:35:26.801Z,99.99
2019-03-09T09:36:26.621Z,99.99
2019-03-09T09:37:26.540Z,99.99
2019-03-09T09:38:26.585Z,99.99
2019-03-09T09:39:26.378Z,99.99
2019-03-09T09:40:26.329Z,99.99
2019-03-09T09:41:26.223Z,99.99
2019-03-09T09:42:26.135Z,99.99
2019-03-09T09:43:26.208Z,99.99
2019-03-09T09:44:25.962Z,99.99
2019-03-09T09:45:25.958Z,99.99
2019-03-09T09:46:25.801Z,99.99
2019-03-09T09:47:25.716Z,99.99
2019-03-09T09:48:25.741Z,99.99
2019-03-09T09:49:25.550Z,99.99
2019-03-09T09:50:25.479Z,99.99
2019-03-09T09:51:27.398Z,99.99
2019-03-09T09:52:25.302Z,99.99
2019-03-09T09:53:25.252Z,99.99
2019-03-09T09:54:25.167Z,99.99
2019-03-09T09:55:25.078Z,99.99
2019-03-09T09:56:24.982Z,99.99
2019-03-09T09:57:25.906Z,99.99
2019-03-09T09:58:24.813Z,99.99
2019-03-09T09:59:24.728Z,99.99
2019-03-09T10:00:24.731Z,99.99
2019-03-09T10:01:24.567Z,99.99
2019-03-09T10:02:24.499Z,99.99
2019-03-09T10:03:25.437Z,99.99
2019-03-09T10:04:24.324Z,99.99
2019-03-09T10:05:24.364Z,99.99
2019-03-09T10:06:24.158Z,99.99
2019-03-09T10:07:24.068Z,99.99
2019-03-09T10:08:24.038Z,99.99
2019-03-09T10:09:23.912Z,99.99
2019-03-09T10:10:23.840Z,99.99
2019-03-09T10:11:23.852Z,99.99
2019-03-09T10:12:23.658Z,99.99
2019-03-09T10:13:23.579Z,99.99
2019-03-09T10:14:23.575Z,99.99
2019-03-09T10:15:23.423Z,99.99
2019-03-09T10:16:23.340Z,99.99
2019-03-09T10:17:23.255Z,99.99
2019-03-09T10:18:23.164Z,99.99
2019-03-09T10:19:23.089Z,99.99
2019-03-09T10:20:23.021Z,99.99
2019-03-09T10:21:22.928Z,99.99
2019-03-09T10:22:22.837Z,99.99
2019-03-09T10:23:22.777Z,99.99
2019-03-09T10:24:22.673Z,99.99
2019-03-09T10:25:22.613Z,99.99
2019-03-09T10:26:25.677Z,99.99
2019-03-09T10:27:22.430Z,99.99
2019-03-09T10:28:22.351Z,99.99
2019-03-09T10:29:22.285Z,99.99
2019-03-09T10:30:22.219Z,99.99
2019-03-09T10:31:22.110Z,99.99
2019-03-09T10:32:22.021Z,99.99
2019-03-09T10:33:24.177Z,99.99
2019-03-09T10:34:21.864Z,99.99
2019-03-09T10:35:21.794Z,99.99
2019-03-09T10:36:21.695Z,99.99
2019-03-09T10:37:21.630Z,99.99
2019-03-09T10:38:21.550Z,99.99
2019-03-09T10:39:21.453Z,99.99
2019-03-09T10:40:21.399Z,99.99
2019-03-09T10:41:21.288Z,99.99
2019-03-09T10:42:21.206Z,99.99
2019-03-09T10:43:21.140Z,99.99
2019-03-09T10:44:21.053Z,99.99
2019-03-09T10:45:20.979Z,99.99
2019-03-09T10:46:20.888Z,99.99
2019-03-09T10:47:20.805Z,99.99
2019-03-09T10:48:20.717Z,99.99
2019-03-09T10:49:20.653Z,99.99
2019-03-09T10:50:20.579Z,99.99
2019-03-09T10:51:20.481Z,99.99
2019-03-09T10:52:20.405Z,99.99
2019-03-09T10:53:20.315Z,99.99
2019-03-09T10:54:20.231Z,99.43
2019-03-09T10:55:20.294Z,99.71
2019-03-09T10:56:20.069Z,99.28
2019-03-09T10:57:19.987Z,99.99
2019-03-09T10:58:21.933Z,99.90
2019-03-09T10:59:19.839Z,99.80
2019-03-09T11:00:19.744Z,99.04
2019-03-09T11:01:19.828Z,98.66
2019-03-09T11:02:19.606Z,99.14
2019-03-09T11:03:19.497Z,98.66
2019-03-09T11:04:27.661Z,98.28
2019-03-09T11:05:19.332Z,98.75
2019-03-09T11:06:19.320Z,99.04
2019-03-09T11:07:19.227Z,99.14
2019-03-09T11:08:19.090Z,98.37
2019-03-09T11:09:19.007Z,97.80
2019-03-09T11:10:19.969Z,98.08
2019-03-09T11:11:18.868Z,98.85
2019-03-09T11:12:18.764Z,98.85
2019-03-09T11:13:18.814Z,99.23
2019-03-09T11:14:18.601Z,98.85
2019-03-09T11:15:18.523Z,98.85
2019-03-09T11:16:18.664Z,97.99
2019-03-09T11:17:18.359Z,98.37
2019-03-09T11:18:18.279Z,97.99
2019-03-09T11:19:18.240Z,97.52
2019-03-09T11:20:18.112Z,96.94
2019-03-09T11:21:18.079Z,97.23
2019-03-09T11:22:17.949Z,97.23
2019-03-09T11:23:18.063Z,97.03
2019-03-09T11:24:17.792Z,97.13
2019-03-09T11:25:17.869Z,97.32
2019-03-09T11:26:17.634Z,97.23
2019-03-09T11:27:17.560Z,97.23
2019-03-09T11:28:17.473Z,96.56
2019-03-09T11:29:17.390Z,96.37
2019-03-09T11:30:17.312Z,96.37
2019-03-09T11:31:17.230Z,96.56
2019-03-09T11:32:17.144Z,97.03
2019-03-09T11:33:17.086Z,96.84
2019-03-09T11:34:16.974Z,96.46
2019-03-09T11:35:16.910Z,96.66
2019-03-09T11:36:16.838Z,96.94
2019-03-09T11:37:16.740Z,96.66
2019-03-09T11:38:16.648Z,97.42
2019-03-09T11:39:16.593Z,96.75
2019-03-09T11:40:16.495Z,96.84
2019-03-09T11:41:19.335Z,96.66
2019-03-09T11:42:16.327Z,96.66
2019-03-09T11:43:16.256Z,95.75
2019-03-09T11:44:16.170Z,95.17
2019-03-09T11:45:16.086Z,94.60
2019-03-09T11:46:16.018Z,94.51
2019-03-09T11:47:15.922Z,94.98
2019-03-09T11:48:15.832Z,94.98
2019-03-09T11:49:15.755Z,94.70
2019-03-09T11:50:15.679Z,94.22
2019-03-09T11:51:15.609Z,93.84
2019-03-09T11:52:20.148Z,94.60
2019-03-09T11:53:15.443Z,94.79
2019-03-09T11:54:15.353Z,94.79
2019-03-09T11:55:15.275Z,94.46
2019-03-09T11:56:15.204Z,93.31
2019-03-09T11:57:15.119Z,92.74
2019-03-09T11:58:15.023Z,92.30
2019-03-09T11:59:14.950Z,91.25
2019-03-09T12:00:14.863Z,91.06
2019-03-09T12:01:14.795Z,90.10
2019-03-09T12:02:14.699Z,90.10
2019-03-09T12:03:14.628Z,90.58
2019-03-09T12:04:14.541Z,90.53
2019-03-09T12:05:14.470Z,89.62
2019-03-09T12:06:14.398Z,89.76
2019-03-09T12:07:14.308Z,88.23
2019-03-09T12:08:14.220Z,87.85
2019-03-09T12:09:14.157Z,88.13
2019-03-09T12:10:14.070Z,87.66
2019-03-09T12:11:14.001Z,88.13
2019-03-09T12:12:13.926Z,88.13
2019-03-09T12:13:13.850Z,87.37
2019-03-09T12:14:13.762Z,87.18
2019-03-09T12:15:13.663Z,87.47
2019-03-09T12:16:13.596Z,87.85
2019-03-09T12:17:13.519Z,87.37
2019-03-09T12:18:13.432Z,86.51
2019-03-09T12:19:13.349Z,86.61
2019-03-09T12:20:13.265Z,87.08
2019-03-09T12:21:13.192Z,87.27
2019-03-09T12:22:13.122Z,87.27
2019-03-09T12:23:13.032Z,87.18
2019-03-09T12:24:18.755Z,85.69
2019-03-09T12:25:12.867Z,85.02
2019-03-09T12:26:12.795Z,85.12
2019-03-09T12:27:12.728Z,84.88
2019-03-09T12:28:12.647Z,84.31
2019-03-09T12:29:12.555Z,85.51
2019-03-09T12:30:12.483Z,86.28
2019-03-09T12:31:12.577Z,86.37
2019-03-09T12:32:12.335Z,87.62
2019-03-09T12:33:12.230Z,87.14
2019-03-09T12:34:12.183Z,85.61
2019-03-09T12:35:12.076Z,85.80
2019-03-09T12:36:11.993Z,86.57
2019-03-09T12:37:12.029Z,87.04
2019-03-09T12:38:11.835Z,85.94
2019-03-09T12:39:11.757Z,85.55
2019-03-09T12:40:11.815Z,84.12
2019-03-09T12:41:11.592Z,84.41
2019-03-09T12:42:11.523Z,84.59
2019-03-09T12:43:11.443Z,84.75
2019-03-09T12:44:11.349Z,85.32
2019-03-09T12:45:11.302Z,85.32
2019-03-09T12:46:11.195Z,84.94
2019-03-09T12:47:11.123Z,85.32
2019-03-09T12:48:11.152Z,85.22
2019-03-09T12:49:10.949Z,86.14
2019-03-09T12:50:10.882Z,86.52
2019-03-09T12:51:10.824Z,86.90